Time;durP1;ratioP1;P1;durP2;ratioP2;P2;SDS_P1;SDS_P2;PMS_P1;PMS_P2;Temp;Humidity;BMP_temperature;BMP_pressure;BME280_temperature;BME280_humidity;BME280_pressure;Samples;Min_cycle;Max_cycle;Signal;HPM_P1;HPM_P2
2023/03/02 00:01:31;;;;;;;33.47;17.35;;;0.70;99.90;;;-0.24;100.00;97329.56;4988597;28;20715;-39
2023/03/02 00:03:59;;;;;;;29.10;16.77;;;0.60;99.90;;;-0.29;100.00;97344.22;4983892;28;20049;-40
2023/03/02 00:06:27;;;;;;;32.33;16.70;;;0.60;99.90;;;-0.31;100.00;97319.19;4989997;28;20096;-40
2023/03/02 00:08:53;;;;;;;33.95;17.33;;;0.60;99.90;;;-0.36;100.00;97332.09;4984078;28;20072;-40
2023/03/02 00:11:20;;;;;;;30.63;16.95;;;0.60;99.90;;;-0.30;100.00;97336.47;4988142;28;20577;-40
2023/03/02 00:13:46;;;;;;;31.20;16.90;;;0.60;99.90;;;-0.31;100.00;97330.41;4989755;28;20123;-40
2023/03/02 00:16:11;;;;;;;29.15;16.13;;;0.60;99.90;;;-0.39;100.00;97327.78;4993953;28;20533;-40
2023/03/02 00:18:37;;;;;;;29.98;16.90;;;0.50;99.90;;;-0.44;100.00;97328.63;4984938;28;20038;-40
2023/03/02 00:21:03;;;;;;;27.92;15.45;;;0.50;99.90;;;-0.56;100.00;97311.28;4989791;28;20030;-40
2023/03/02 00:23:29;;;;;;;28.55;15.52;;;0.50;99.90;;;-0.58;100.00;97320.75;4991291;28;20049;-41
2023/03/02 00:25:54;;;;;;;31.63;16.70;;;0.40;99.90;;;-0.61;100.00;97324.22;4988184;28;20025;-41
2023/03/02 00:28:20;;;;;;;29.48;16.77;;;0.30;99.90;;;-0.66;100.00;97325.91;4990368;28;20119;-41
2023/03/02 00:30:46;;;;;;;34.60;17.73;;;0.30;99.90;;;-0.63;100.00;97322.44;4988365;28;20030;-40
2023/03/02 00:33:11;;;;;;;29.83;16.58;;;0.30;99.90;;;-0.66;100.00;97320.72;4986309;28;20021;-40
2023/03/02 00:35:39;;;;;;;31.00;16.65;;;0.30;99.90;;;-0.54;100.00;97317.31;4988880;28;20029;-41
2023/03/02 00:38:06;;;;;;;31.33;17.40;;;0.40;99.90;;;-0.57;100.00;97319.91;4991792;28;20465;-40
2023/03/02 00:40:33;;;;;;;31.02;16.52;;;0.40;99.90;;;-0.71;100.00;97293.94;4988917;28;20540;-40
2023/03/02 00:42:59;;;;;;;30.17;16.90;;;0.30;99.90;;;-0.65;100.00;97306.91;4988278;28;20034;-40
2023/03/02 00:45:25;;;;;;;35.30;18.80;;;0.30;99.90;;;-0.60;100.00;97312.97;4990371;28;20034;-40
2023/03/02 00:47:50;;;;;;;32.13;17.27;;;0.30;99.90;;;-0.64;100.00;97307.78;4988591;28;20482;-40
2023/03/02 00:50:16;;;;;;;32.17;18.10;;;0.30;99.90;;;-0.76;100.00;97303.38;4992440;28;20198;-40
2023/03/02 00:52:42;;;;;;;35.15;18.02;;;0.30;99.90;;;-0.61;100.00;97300.91;4985853;28;20034;-40
2023/03/02 00:55:08;;;;;;;29.58;17.25;;;0.30;99.90;;;-0.63;100.00;97302.63;4990050;28;20209;-40
2023/03/02 00:57:34;;;;;;;29.63;17.23;;;0.30;99.90;;;-0.62;100.00;97309.50;4987456;28;20065;-40
2023/03/02 00:59:59;;;;;;;30.05;16.45;;;0.30;99.90;;;-0.63;100.00;97309.50;4988225;28;20119;-40
2023/03/02 01:02:25;;;;;;;32.75;18.20;;;0.30;99.90;;;-0.45;100.00;97309.63;4987667;28;20041;-40
2023/03/02 01:04:52;;;;;;;38.10;18.75;;;0.40;99.90;;;-0.52;100.00;97306.97;4989331;28;20072;-40
2023/03/02 01:07:25;;;;;;;35.33;17.60;;;0.40;99.90;;;-0.57;100.00;97312.16;4993045;28;20042;-40
2023/03/02 01:09:50;;;;;;;37.75;18.83;;;0.30;99.90;;;-0.59;100.00;97312.13;4988285;28;20203;-41
2023/03/02 01:12:16;;;;;;;29.75;17.08;;;0.30;99.90;;;-0.79;100.00;97269.69;4969983;28;20037;-41
2023/03/02 01:14:46;;;;;;;34.70;17.38;;;0.30;99.90;;;-0.60;100.00;97300.03;4980493;28;20421;-42
2023/03/02 01:17:13;;;;;;;33.45;18.23;;;0.30;99.90;;;-0.62;100.00;97296.56;4982346;28;20041;-40
2023/03/02 01:19:40;;;;;;;34.60;18.40;;;0.30;99.90;;;-0.64;100.00;97293.09;4984318;28;20080;-40
2023/03/02 01:24:41;;;;;;;36.33;18.70;;;0.30;99.90;;;-0.74;100.00;97275.78;4994095;28;20298;-40
2023/03/02 01:27:08;;;;;;;36.88;18.13;;;0.20;99.90;;;-0.73;100.00;97290.47;5008141;28;20059;-39
2023/03/02 01:29:34;;;;;;;36.47;18.38;;;0.20;99.90;;;-0.73;100.00;97287.03;5005680;28;20026;-40
2023/03/02 01:32:00;;;;;;;33.95;18.73;;;0.20;99.90;;;-0.77;100.00;97283.53;5007614;28;20056;-37
2023/03/02 01:34:25;;;;;;;35.40;19.27;;;0.20;99.90;;;-0.80;100.00;97278.34;5007371;28;20040;-40
2023/03/02 01:36:51;;;;;;;32.58;17.65;;;0.10;99.90;;;-0.82;100.00;97280.91;5007962;28;20033;-38
2023/03/02 01:39:17;;;;;;;35.47;17.77;;;0.10;99.90;;;-0.83;100.00;97280.91;5003833;28;20033;-37
2023/03/02 01:41:45;;;;;;;30.58;17.48;;;0.10;99.90;;;-0.87;100.00;97276.56;5004176;28;20081;-38
2023/03/02 01:44:40;;;;;;;32.85;17.75;;;0.10;99.90;;;-0.88;100.00;97285.19;5006393;28;20042;-38
2023/03/02 01:47:13;;;;;;;37.38;18.90;;;0.00;99.90;;;-0.85;100.00;97270.53;5013613;28;20021;-38
2023/03/02 01:49:47;;;;;;;33.72;17.98;;;0.00;99.90;;;-0.93;100.00;97264.47;5002447;28;20057;-38
2023/03/02 01:52:14;;;;;;;35.58;17.48;;;0.00;99.90;;;-0.96;100.00;97267.00;5004081;28;20044;-38
2023/03/02 01:54:41;;;;;;;34.60;18.27;;;0.00;99.90;;;-0.97;100.00;97268.75;5004007;28;20075;-38
2023/03/02 01:57:09;;;;;;;33.30;18.40;;;0.00;99.90;;;-1.03;100.00;97260.06;5006427;28;21009;-38
2023/03/02 01:59:38;;;;;;;35.92;18.75;;;-0.10;99.90;;;-1.12;100.00;97266.03;5001647;28;20080;-38
2023/03/02 02:02:08;;;;;;;36.65;18.80;;;-0.10;99.90;;;-1.13;100.00;97255.69;5003502;28;20033;-38
2023/03/02 02:04:37;;;;;;;32.13;18.02;;;-0.20;99.90;;;-1.07;100.00;97248.84;5006882;28;20029;-38
2023/03/02 02:07:06;;;;;;;34.78;17.15;;;-0.10;99.90;;;-1.08;100.00;97254.00;5003018;28;20029;-38
2023/03/02 02:09:38;;;;;;;36.78;18.55;;;-0.20;99.90;;;-1.31;100.00;97215.00;5002143;28;20556;-38
2023/03/02 02:12:04;;;;;;;;;;;-0.20;99.90;;;-1.13;100.00;97243.63;5011877;28;20339;-38
2023/03/02 02:14:30;;;;;;;32.13;16.38;;;-0.20;99.90;;;-1.17;100.00;97252.19;5004417;28;19960;-39
2023/03/02 02:16:56;;;;;;;35.90;17.23;;;-0.20;99.90;;;-1.25;100.00;97241.81;5008416;28;21693;-38
2023/03/02 02:19:54;;;;;;;30.50;16.80;;;-0.30;99.90;;;-1.30;100.00;97240.03;5007257;28;20124;-39
2023/03/02 02:23:22;;;;;;;32.33;17.65;;;-0.30;99.90;;;-1.38;100.00;97240.84;5003316;28;20145;-39
2023/03/02 02:25:51;;;;;;;34.72;18.05;;;-0.40;99.90;;;-1.36;100.00;97236.56;5004767;28;20041;-39
2023/03/02 02:29:12;;;;;;;33.10;17.60;;;-0.50;99.90;;;-1.41;100.00;97238.22;5007593;28;20091;-39
2023/03/02 02:31:59;;;;;;;33.03;17.77;;;-0.50;99.90;;;-1.44;100.00;97238.19;5016911;28;20072;-38
2023/03/02 02:34:38;;;;;;;34.78;18.25;;;-0.50;99.90;;;-1.62;100.00;97210.47;5004718;28;20983;-38
2023/03/02 02:37:11;;;;;;;37.08;18.50;;;-0.50;99.90;;;-1.47;100.00;97233.03;5008872;28;20040;-38
2023/03/02 02:39:43;;;;;;;37.03;19.23;;;-0.50;99.90;;;-1.49;100.00;97232.16;5004915;28;20036;-38
2023/03/02 02:42:22;;;;;;;35.03;18.33;;;-0.50;99.90;;;-1.52;100.00;97229.53;5006801;28;20104;-38
2023/03/02 02:44:51;;;;;;;37.05;19.40;;;-0.60;99.90;;;-1.50;100.00;97224.38;5030739;28;20179;-38
2023/03/02 02:47:20;;;;;;;34.25;18.30;;;-0.60;99.90;;;-1.52;100.00;97216.59;5025968;28;20037;-39
2023/03/02 02:49:49;;;;;;;37.05;18.70;;;-0.60;99.90;;;-1.70;100.00;97199.22;4996104;28;20026;-38
2023/03/02 02:52:19;;;;;;;39.72;19.20;;;-0.60;99.90;;;-1.56;100.00;97222.63;5010457;28;20060;-38
2023/03/02 02:54:49;;;;;;;32.45;17.98;;;-0.60;99.90;;;-1.59;100.00;97215.69;5005399;28;20033;-39
2023/03/02 02:57:16;;;;;;;35.55;18.92;;;-0.70;99.90;;;-1.61;100.00;97230.31;5012622;28;20069;-39
2023/03/02 02:59:53;;;;;;;30.75;17.02;;;-0.70;99.90;;;-1.63;100.00;97231.19;5004517;28;20036;-38
2023/03/02 03:02:31;;;;;;;35.15;19.02;;;-0.70;99.90;;;-1.67;100.00;97225.13;5005690;28;20113;-39
2023/03/02 03:05:03;;;;;;;37.35;18.55;;;-0.70;99.90;;;-1.68;100.00;97223.38;5004814;28;20034;-39
2023/03/02 03:07:31;;;;;;;36.95;18.95;;;-0.70;99.90;;;-1.63;100.00;97218.25;5008876;28;20489;-39
2023/03/02 03:10:07;;;;;;;33.10;17.88;;;-0.70;99.90;;;-1.66;100.00;97215.63;5004584;28;21445;-39
2023/03/02 03:12:33;;;;;;;34.67;18.20;;;-0.70;99.90;;;-1.66;100.00;97220.81;5006398;28;20109;-39
2023/03/02 03:15:01;;;;;;;34.25;17.95;;;-0.70;99.90;;;-1.70;100.00;97224.22;5004642;28;20033;-39
2023/03/02 03:17:27;;;;;;;34.50;18.92;;;-0.80;99.90;;;-1.77;100.00;97213.81;5008454;28;20033;-38
2023/03/02 03:19:52;;;;;;;31.23;17.42;;;-0.80;99.90;;;-1.75;100.00;97219.84;5004333;28;20041;-38
2023/03/02 03:22:18;;;;;;;35.85;17.55;;;-0.80;99.90;;;-1.73;100.00;97218.16;5005587;28;20493;-38
2023/03/02 03:24:45;;;;;;;38.78;18.33;;;-0.80;99.90;;;-1.80;100.00;97203.44;5006910;28;20030;-39
2023/03/02 03:27:14;;;;;;;31.10;17.67;;;-0.80;99.90;;;-1.75;100.00;97209.50;5015482;28;20056;-39
2023/03/02 03:29:43;;;;;;;35.47;18.40;;;-0.80;99.90;;;-1.72;100.00;97211.28;5003560;28;20469;-39
2023/03/02 03:32:09;;;;;;;34.65;18.95;;;-0.80;99.90;;;-1.75;100.00;97211.25;5003963;28;20029;-38
2023/03/02 03:34:39;;;;;;;35.13;18.73;;;-0.80;99.90;;;-1.75;100.00;97206.06;5001828;28;20057;-39
2023/03/02 03:37:07;;;;;;;38.63;19.90;;;-0.80;99.90;;;-1.74;100.00;97205.22;5004449;28;20785;-39
2023/03/02 03:39:33;;;;;;;36.53;19.15;;;-0.80;99.90;;;-1.86;100.00;97200.81;5007191;28;20494;-39
2023/03/02 03:41:59;;;;;;;35.42;18.00;;;-0.80;99.90;;;-1.82;100.00;97218.06;5008553;28;20087;-39
2023/03/02 03:44:25;;;;;;;34.75;18.75;;;-0.90;99.90;;;-1.81;100.00;97212.06;5010120;28;20098;-38
2023/03/02 03:46:50;;;;;;;37.42;19.00;;;-0.80;99.90;;;-1.81;100.00;97214.66;5003345;28;20040;-38
2023/03/02 03:49:16;;;;;;;36.72;19.00;;;-0.90;99.90;;;-1.77;100.00;97215.53;5007818;28;20068;-38
2023/03/02 03:51:42;;;;;;;35.85;19.85;;;-0.90;99.90;;;-1.76;100.00;97217.25;5007792;28;20053;-38
2023/03/02 03:54:09;;;;;;;37.55;19.67;;;-0.80;99.90;;;-1.78;100.00;97216.38;5011731;28;20048;-38
2023/03/02 03:56:38;;;;;;;40.58;20.27;;;-0.80;99.90;;;-1.82;100.00;97215.47;5004967;28;20117;-38
2023/03/02 03:59:08;;;;;;;38.45;19.33;;;-0.90;99.90;;;-1.82;100.00;97223.25;5006423;28;20524;-38
2023/03/02 04:01:57;;;;;;;35.58;19.67;;;-0.80;99.90;;;-1.83;100.00;97223.22;5002343;28;20080;-38
2023/03/02 04:04:31;;;;;;;37.03;18.77;;;-0.90;99.90;;;-1.85;100.00;97227.50;5004902;28;20033;-38
2023/03/02 04:06:57;;;;;;;37.72;18.55;;;-0.90;99.90;;;-1.93;100.00;97223.13;5010363;28;20142;-38
2023/03/02 04:09:24;;;;;;;36.65;19.08;;;-0.90;99.90;;;-1.92;100.00;97230.06;5012128;28;20042;-38
2023/03/02 04:11:53;;;;;;;36.92;19.60;;;-0.90;99.90;;;-1.91;100.00;97225.75;5009089;28;20424;-38
2023/03/02 04:14:21;;;;;;;36.63;19.80;;;-1.00;99.90;;;-1.92;100.00;97227.47;5009931;28;20034;-38
2023/03/02 04:16:47;;;;;;;39.72;19.45;;;-1.00;99.90;;;-1.94;100.00;97230.88;5008100;28;20041;-38
2023/03/02 04:19:16;;;;;;;41.55;20.13;;;-1.00;99.90;;;-1.96;100.00;97224.84;5001525;28;20958;-38
2023/03/02 04:21:46;;;;;;;44.25;20.13;;;-1.00;99.90;;;-2.03;100.00;97228.22;5006818;28;20085;-38
2023/03/02 04:24:13;;;;;;;36.97;18.80;;;-1.00;99.90;;;-2.05;100.00;97232.50;5005534;28;20080;-38
2023/03/02 04:26:41;;;;;;;39.13;20.85;;;-1.10;99.90;;;-2.13;100.00;97237.59;5010348;28;20465;-38
2023/03/02 04:29:08;;;;;;;39.63;20.30;;;-1.10;99.90;;;-2.19;100.00;97241.00;5007694;28;20036;-38
2023/03/02 04:31:34;;;;;;;42.42;20.15;;;-1.20;99.90;;;-2.22;100.00;97238.38;5004044;28;20029;-38
2023/03/02 04:34:04;;;;;;;41.28;20.08;;;-1.20;99.90;;;-2.18;100.00;97237.53;4999318;28;20056;-38
2023/03/02 04:36:31;;;;;;;37.17;19.40;;;-1.20;99.90;;;-2.33;100.00;97235.66;5010394;28;20070;-38
2023/03/02 04:38:57;;;;;;;35.60;18.90;;;-1.30;99.90;;;-2.46;100.00;97217.41;5011098;28;21175;-38
2023/03/02 04:41:22;;;;;;;36.58;18.73;;;-1.30;99.90;;;-2.42;100.00;97239.84;5008820;28;20042;-38
2023/03/02 04:43:51;;;;;;;37.10;19.38;;;-1.40;99.90;;;-2.42;100.00;97234.66;5001458;28;20037;-38
2023/03/02 04:46:22;;;;;;;35.90;19.60;;;-1.40;99.90;;;-2.53;100.00;97230.28;5006264;28;20032;-38
2023/03/02 04:48:47;;;;;;;37.08;18.38;;;-1.50;99.90;;;-2.61;100.00;97231.03;5000918;28;20416;-38
2023/03/02 04:51:24;;;;;;;33.30;18.25;;;-1.60;99.90;;;-2.65;100.00;97224.09;5003819;28;20037;-38
2023/03/02 04:53:51;;;;;;;31.33;17.35;;;-1.60;99.90;;;-2.69;100.00;97225.78;5001605;28;20481;-38
2023/03/02 04:56:17;;;;;;;35.47;18.48;;;-1.60;99.90;;;-2.71;100.00;97225.75;5013275;28;20580;-38
2023/03/02 04:58:43;;;;;;;40.33;20.05;;;-1.70;99.90;;;-2.65;100.00;97227.53;4995736;28;20219;-38
2023/03/02 05:01:09;;;;;;;41.33;19.88;;;-1.60;99.90;;;-2.55;100.00;97228.50;5007584;28;20370;-38
2023/03/02 05:03:35;;;;;;;40.55;20.83;;;-1.50;99.90;;;-2.52;100.00;97221.66;5007486;28;20430;-37
2023/03/02 05:06:04;;;;;;;42.03;20.95;;;-1.50;99.90;;;-2.46;100.00;97235.50;5008147;28;22403;-38
2023/03/02 05:08:30;;;;;;;37.75;20.17;;;-1.40;99.90;;;-2.38;100.00;97226.13;5005575;28;20159;-37
2023/03/02 05:10:57;;;;;;;36.17;20.15;;;-1.30;99.90;;;-2.44;100.00;97220.88;5006721;28;20025;-38
2023/03/02 05:13:24;;;;;;;40.38;20.75;;;-1.30;99.90;;;-2.31;100.00;97222.78;5006148;28;21216;-38
2023/03/02 05:15:50;;;;;;;52.83;22.05;;;-1.30;99.90;;;-2.19;100.00;97229.75;4995514;28;20327;-37
2023/03/02 05:18:16;;;;;;;38.60;20.50;;;-1.20;99.90;;;-2.12;100.00;97237.63;5005351;28;20038;-38
2023/03/02 05:20:42;;;;;;;39.72;20.65;;;-1.10;99.90;;;-2.06;100.00;97231.63;5004266;28;20064;-38
2023/03/02 05:23:10;;;;;;;40.53;21.35;;;-1.00;99.90;;;-1.94;100.00;97230.88;5005815;28;20284;-38
2023/03/02 05:25:37;;;;;;;41.75;21.77;;;-0.90;99.90;;;-1.86;100.00;97230.97;5009345;28;20393;-38
2023/03/02 05:28:04;;;;;;;37.33;19.20;;;-0.90;99.90;;;-1.79;100.00;97225.00;5011054;28;20462;-38
2023/03/02 05:30:31;;;;;;;40.22;21.38;;;-0.70;99.90;;;-1.75;100.00;97219.84;5007289;28;20044;-38
2023/03/02 05:32:57;;;;;;;41.15;21.45;;;-0.70;99.90;;;-1.71;100.00;97214.72;5005407;28;20045;-38
2023/03/02 05:35:23;;;;;;;42.10;21.20;;;-0.70;99.90;;;-1.74;100.00;97208.69;5006227;28;20611;-38
2023/03/02 05:37:49;;;;;;;38.20;20.73;;;-0.60;99.90;;;-1.70;100.00;97219.91;5000306;28;20037;-38
2023/03/02 05:40:19;;;;;;;37.60;20.58;;;-0.60;99.90;;;-1.70;100.00;97225.09;5009597;28;20029;-37
2023/03/02 05:42:45;;;;;;;36.72;20.80;;;-0.60;99.90;;;-1.67;100.00;97224.22;5005682;28;20033;-38
2023/03/02 05:45:28;;;;;;;37.95;19.98;;;-0.60;99.90;;;-1.66;100.00;97215.63;5004087;28;20051;-38
2023/03/02 05:47:54;;;;;;;41.80;20.33;;;-0.60;99.90;;;-1.67;100.00;97219.06;5014117;28;20029;-38
2023/03/02 05:50:21;;;;;;;40.15;20.27;;;-0.60;99.90;;;-1.57;100.00;97228.63;5014630;28;20052;-38
2023/03/02 05:52:47;;;;;;;41.03;20.63;;;-0.60;99.90;;;-1.50;100.00;97227.81;5016275;28;20068;-38
2023/03/02 05:55:14;;;;;;;39.80;21.27;;;-0.50;99.90;;;-1.47;100.00;97233.03;5010580;28;20112;-38
2023/03/02 05:57:40;;;;;;;41.70;21.15;;;-0.50;99.90;;;-1.38;100.00;97221.88;5013708;28;20083;-38
2023/03/02 06:00:08;;;;;;;43.72;20.30;;;-0.40;99.90;;;-1.39;100.00;97230.50;5015050;28;20060;-38
2023/03/02 06:02:34;;;;;;;43.75;20.98;;;-0.40;99.90;;;-1.40;100.00;97237.41;5010076;28;20347;-38
2023/03/02 06:05:00;;;;;;;39.70;21.25;;;-0.40;99.90;;;-1.31;100.00;97235.72;5013485;28;20087;-38
2023/03/02 06:07:26;;;;;;;37.85;19.92;;;-0.30;99.90;;;-1.37;100.00;97228.78;5009034;28;20061;-38
2023/03/02 06:09:52;;;;;;;39.25;19.38;;;-0.30;99.90;;;-1.32;100.00;97240.03;5010885;28;20385;-38
2023/03/02 06:12:17;;;;;;;38.10;20.67;;;-0.30;99.90;;;-1.31;100.00;97236.59;5003148;28;20116;-38
2023/03/02 06:14:43;;;;;;;40.22;21.17;;;-0.30;99.90;;;-1.23;100.00;97242.69;5009199;28;20125;-39
2023/03/02 06:17:09;;;;;;;39.28;20.60;;;-0.20;99.90;;;-1.13;100.00;97248.81;5003869;28;20228;-39
2023/03/02 06:19:35;;;;;;;40.22;20.65;;;-0.20;99.90;;;-1.13;100.00;97248.81;5007242;28;20038;-39
2023/03/02 06:22:01;;;;;;;40.70;19.85;;;-0.10;99.90;;;-1.37;100.00;97205.50;4998160;28;21008;-39
2023/03/02 06:24:27;;;;;;;37.80;19.63;;;-0.10;99.90;;;-1.09;100.00;97252.28;5011052;28;20109;-39
2023/03/02 06:26:53;;;;;;;38.22;19.35;;;-0.10;99.90;;;-1.11;100.00;97247.09;5002831;28;20033;-39
2023/03/02 06:29:19;;;;;;;38.03;20.27;;;-0.10;99.90;;;-1.02;100.00;97251.47;4995838;28;20041;-39
2023/03/02 06:31:45;;;;;;;40.38;20.70;;;0.00;99.90;;;-1.04;100.00;97255.72;4994888;28;20041;-39
2023/03/02 06:34:11;;;;;;;45.08;21.17;;;0.00;99.90;;;-1.04;100.00;97260.91;5002615;28;20118;-39
2023/03/02 06:36:37;;;;;;;41.20;20.55;;;0.00;99.90;;;-1.08;100.00;97246.22;5013314;28;20520;-38
2023/03/02 06:39:04;;;;;;;44.33;20.48;;;0.00;99.90;;;-1.01;100.00;97259.22;5008822;28;20033;-39
2023/03/02 06:41:32;;;;;;;34.72;20.08;;;0.00;99.90;;;-0.91;100.00;97261.88;5001548;28;20029;-39
2023/03/02 06:43:59;;;;;;;38.80;20.02;;;0.00;99.90;;;-0.83;100.00;97265.38;5003191;28;20496;-39
2023/03/02 06:46:25;;;;;;;37.47;21.17;;;0.10;99.90;;;-0.80;100.00;97266.25;5002598;28;20128;-39
2023/03/02 06:48:50;;;;;;;38.70;21.33;;;0.20;99.90;;;-0.71;100.00;97265.44;5006723;28;20347;-39
2023/03/02 06:51:16;;;;;;;39.33;19.95;;;0.20;99.90;;;-0.68;100.00;97270.63;5006737;28;20037;-39
2023/03/02 06:53:42;;;;;;;38.95;20.20;;;0.30;99.90;;;-0.63;100.00;97263.78;4999851;28;20572;-39
2023/03/02 06:56:08;;;;;;;39.53;21.48;;;0.30;99.90;;;-0.71;100.00;97252.50;5013087;28;20033;-38
2023/03/02 06:58:35;;;;;;;39.45;20.02;;;0.30;99.90;;;-0.60;100.00;97266.34;5007285;28;20033;-38
2023/03/02 07:01:01;;;;;;;40.63;20.45;;;0.40;99.90;;;-0.56;100.00;97274.16;5008441;28;20545;-38
2023/03/02 07:03:26;;;;;;;36.20;20.25;;;0.40;99.90;;;-0.54;100.00;97277.59;5007267;28;20212;-38
2023/03/02 07:05:52;;;;;;;39.05;20.05;;;0.40;99.90;;;-0.50;100.00;97280.22;5000570;28;20470;-39
2023/03/02 07:08:18;;;;;;;39.65;20.85;;;0.50;99.90;;;-0.49;100.00;97276.75;5010428;28;20557;-39
2023/03/02 07:10:44;;;;;;;41.58;19.60;;;0.50;99.90;;;-0.46;100.00;97275.94;5003191;28;20338;-39
2023/03/02 07:13:09;;;;;;;41.28;21.08;;;0.50;99.90;;;-0.43;100.00;97278.50;5009864;28;20021;-39
2023/03/02 07:15:38;;;;;;;37.85;19.63;;;0.60;99.90;;;-0.34;100.00;97282.88;5012773;28;20468;-39
2023/03/02 07:18:04;;;;;;;36.33;19.65;;;0.60;99.90;;;-0.31;100.00;97277.72;5009657;28;20060;-39
2023/03/02 07:20:30;;;;;;;41.55;21.17;;;0.70;99.90;;;-0.29;100.00;97279.44;5003660;28;20473;-39
2023/03/02 07:22:56;;;;;;;36.78;19.45;;;0.70;99.90;;;-0.32;100.00;97281.16;5025697;22;20072;-40
2023/03/02 07:25:21;;;;;;;37.88;20.02;;;0.70;99.90;;;-0.18;100.00;97289.00;4949711;28;20191;-41
2023/03/02 07:27:47;;;;;;;38.92;20.30;;;0.80;99.90;;;-0.18;100.00;97284.66;4954603;28;20046;-41
2023/03/02 07:30:14;;;;;;;37.78;19.52;;;0.80;99.90;;;-0.09;100.00;97289.00;4938358;28;20153;-41
2023/03/02 07:32:40;;;;;;;38.45;20.52;;;0.90;99.90;;;-0.06;100.00;97292.47;4951651;28;20176;-40
2023/03/02 07:35:06;;;;;;;38.97;19.77;;;0.90;99.90;;;0.08;100.00;97296.88;4947521;28;20035;-41
2023/03/02 07:37:32;;;;;;;37.67;21.02;;;1.00;99.90;;;0.06;100.00;97302.03;4946939;28;20498;-41
2023/03/02 07:39:58;;;;;;;35.17;19.65;;;1.10;99.90;;;0.17;100.00;97292.56;4946121;28;20031;-41
2023/03/02 07:42:23;;;;;;;40.40;20.25;;;1.10;99.90;;;0.30;100.00;97297.78;4942079;28;20051;-41
2023/03/02 07:44:52;;;;;;;39.33;19.75;;;1.20;99.90;;;0.43;100.00;97293.47;4949164;28;20034;-41
2023/03/02 07:47:18;;;;;;;39.30;19.85;;;1.30;99.90;;;0.50;100.00;97301.28;4942894;28;20125;-41
2023/03/02 07:49:44;;;;;;;34.72;19.55;;;1.40;99.90;;;0.44;100.00;97292.63;4948420;28;20023;-41
2023/03/02 07:52:10;;;;;;;37.03;19.92;;;1.50;99.90;;;0.50;100.00;97301.28;4953607;28;20050;-41
2023/03/02 07:54:36;;;;;;;38.45;20.08;;;1.50;99.90;;;0.66;100.00;97301.28;4960277;28;20311;-41
2023/03/02 07:57:02;;;;;;;41.08;20.92;;;1.60;99.90;;;0.67;100.00;97303.88;4957339;28;20062;-41
2023/03/02 07:59:28;;;;;;;38.38;20.60;;;1.70;99.90;;;0.72;100.00;97303.91;4953570;28;20038;-41
2023/03/02 08:01:55;;;;;;;38.63;20.95;;;1.70;99.90;;;0.79;100.00;97307.34;4949687;28;20039;-41
2023/03/02 08:04:21;;;;;;;38.55;21.00;;;1.80;99.90;;;0.91;100.00;97303.00;4951997;28;20035;-41
2023/03/02 08:06:46;;;;;;;40.58;20.17;;;1.80;99.90;;;1.08;100.00;97296.97;4954117;28;20364;-40
2023/03/02 08:09:12;;;;;;;37.92;20.23;;;2.00;99.90;;;1.09;100.00;97301.28;4953377;28;20042;-40
2023/03/02 08:11:38;;;;;;;36.70;19.55;;;2.10;99.90;;;1.20;100.00;97306.44;4951407;28;20367;-40
2023/03/02 08:14:03;;;;;;;36.90;18.67;;;2.10;99.90;;;1.16;100.00;97308.19;4953166;28;20031;-40
2023/03/02 08:16:29;;;;;;;33.65;18.70;;;2.20;99.90;;;1.25;100.00;97318.56;4948668;28;21797;-40
2023/03/02 08:18:55;;;;;;;35.70;19.92;;;2.20;99.90;;;1.37;100.00;97311.63;4953419;28;20134;-40
2023/03/02 08:21:24;;;;;;;41.38;21.05;;;2.30;99.90;;;1.38;100.00;97313.34;4950657;28;21123;-40
2023/03/02 08:23:50;;;;;;;38.42;20.17;;;2.40;99.90;;;1.38;100.00;97319.41;4952517;28;20199;-40
2023/03/02 08:26:18;;;;;;;37.50;19.35;;;2.40;99.90;;;1.48;100.00;97315.06;4955136;28;20635;-40
2023/03/02 08:28:45;;;;;;;37.97;20.75;;;2.40;99.90;;;1.54;100.00;97315.03;4945826;28;20031;-40
2023/03/02 08:31:12;;;;;;;36.03;19.77;;;2.50;99.90;;;1.63;100.00;97317.59;4953886;28;20027;-40
2023/03/02 08:33:38;;;;;;;39.08;20.58;;;2.50;99.90;;;1.72;100.00;97314.13;4951811;28;20732;-40
2023/03/02 08:36:12;;;;;;;37.38;20.17;;;2.60;99.90;;;1.88;100.00;97313.22;4952740;28;20276;-40
2023/03/02 08:38:38;;;;;;;38.90;20.08;;;2.80;99.90;;;1.91;100.00;97309.72;4950857;28;20532;-40
2023/03/02 08:41:07;;;;;;;33.28;18.90;;;2.90;99.90;;;2.07;100.00;97306.19;4954534;28;20031;-40
2023/03/02 08:43:34;;;;;;;38.63;19.85;;;2.90;99.90;;;1.97;100.00;97275.88;4939133;28;20026;-40
2023/03/02 08:46:00;;;;;;;34.35;18.52;;;3.10;99.90;;;2.32;100.00;97313.00;4947486;28;20525;-40
2023/03/02 08:48:27;;;;;;;32.88;18.88;;;3.20;99.90;;;2.35;100.00;97306.06;4950956;28;20035;-40
2023/03/02 08:51:08;;;;;;;37.78;20.65;;;3.30;99.90;;;2.42;100.00;97299.06;4950396;28;20510;-40
2023/03/02 08:53:37;;;;;;;36.63;19.42;;;3.30;99.90;;;2.50;100.00;97297.28;4952239;28;20474;-40
2023/03/02 08:56:06;;;;;;;36.17;18.23;;;3.40;99.90;;;2.45;100.00;97299.03;4946426;28;20153;-40
2023/03/02 08:58:32;;;;;;;34.55;18.17;;;3.40;99.90;;;2.58;100.00;97294.63;4954111;28;20030;-40
2023/03/02 09:00:57;;;;;;;38.72;18.90;;;3.40;99.90;;;2.54;100.00;97280.75;4951908;28;20061;-40
2023/03/02 09:03:23;;;;;;;39.65;18.83;;;3.50;99.90;;;2.53;100.00;97271.22;4943224;28;20036;-40
2023/03/02 09:05:49;;;;;;;33.42;18.55;;;3.50;99.90;;;2.53;100.00;97283.38;4951416;28;20049;-40
2023/03/02 09:08:15;;;;;;;31.80;18.27;;;3.50;99.90;;;2.59;100.00;97293.75;4952886;28;20035;-40
2023/03/02 09:10:41;;;;;;;32.92;18.52;;;3.50;99.90;;;2.65;100.00;97288.47;4952662;28;20634;-40
2023/03/02 09:13:07;;;;;;;36.67;18.45;;;3.50;99.90;;;2.70;100.00;97286.72;4951756;28;20054;-40
2023/03/02 09:15:32;;;;;;;34.38;18.40;;;3.50;99.90;;;2.70;100.00;97293.69;4950992;28;20033;-40
2023/03/02 09:17:58;;;;;;;33.45;16.90;;;3.60;99.90;;;2.74;100.00;97292.75;4949750;28;20049;-40
2023/03/02 09:20:24;;;;;;;34.20;17.40;;;3.50;99.90;;;2.79;100.00;97294.47;4951115;28;20038;-40
2023/03/02 09:22:49;;;;;;;34.50;18.20;;;3.60;99.90;;;2.65;100.00;97284.13;4948013;28;20062;-40
2023/03/02 09:25:19;;;;;;;38.13;17.75;;;3.60;99.90;;;2.69;100.00;97290.19;4933638;28;20035;-40
2023/03/02 09:27:46;;;;;;;35.30;18.15;;;3.60;99.90;;;2.64;100.00;97285.03;4942337;28;20038;-40
2023/03/02 09:30:14;;;;;;;33.80;17.48;;;3.60;99.90;;;2.74;100.00;97279.75;4944511;28;20038;-40
2023/03/02 09:32:40;;;;;;;32.08;17.98;;;3.60;99.90;;;2.66;100.00;97279.81;4945859;28;20077;-39
2023/03/02 09:35:06;;;;;;;33.05;17.42;;;3.60;99.90;;;2.71;100.00;97283.25;4946400;28;20041;-40
2023/03/02 09:37:34;;;;;;;34.83;17.77;;;3.60;99.90;;;2.74;100.00;97287.56;4951727;28;20030;-40
2023/03/02 09:39:59;;;;;;;29.15;16.13;;;3.60;99.90;;;2.80;100.00;97288.38;4954196;28;20132;-40
2023/03/02 09:42:25;;;;;;;32.28;17.00;;;3.60;99.90;;;2.88;100.00;97292.66;4950210;28;21695;-40
2023/03/02 09:45:34;;;;;;;27.98;16.45;;;3.70;99.90;;;2.97;100.00;97289.97;4949422;28;20039;-41
2023/03/02 09:48:13;;;;;;;28.73;16.45;;;3.80;99.90;;;3.11;100.00;97292.47;4935967;28;20106;-40
2023/03/02 09:51:03;;;;;;;27.52;15.55;;;3.90;99.90;;;3.31;100.00;97298.34;4947047;28;20026;-40
2023/03/02 09:53:45;;;;;;;32.72;15.07;;;4.10;99.90;;;3.55;100.00;97297.25;4952181;28;20075;-40
2023/03/02 09:56:17;;;;;;;34.65;15.43;;;4.30;99.90;;;3.65;100.00;97271.06;4948638;28;20391;-40
2023/03/02 09:59:01;;;;;;;28.45;15.98;;;4.50;99.90;;;3.98;98.89;97299.38;4943495;28;20093;-40
2023/03/02 10:02:00;;;;;;;26.58;14.93;;;4.70;99.90;;;4.10;97.10;97306.16;4951505;28;20038;-40
2023/03/02 10:04:49;;;;;;;28.42;15.18;;;4.90;99.90;;;4.01;97.06;97301.91;4931706;28;20171;-40
2023/03/02 10:07:21;;;;;;;30.33;14.43;;;5.00;99.90;;;4.13;94.98;97295.69;4968384;28;20617;-40
2023/03/02 10:09:46;;;;;;;28.10;15.20;;;5.00;99.90;;;4.21;95.34;97299.03;4947143;28;20082;-40
2023/03/02 10:12:45;;;;;;;25.40;15.23;;;5.10;99.90;;;4.23;94.15;97304.25;4949235;28;21157;-40
2023/03/02 10:15:22;;;;;;;27.00;14.35;;;5.10;99.90;;;4.25;94.29;97305.09;4946230;28;20108;-40